Time;durP1;ratioP1;P1;durP2;ratioP2;P2;SDS_P1;SDS_P2;PMS_P1;PMS_P2;Temp;Humidity;BMP_temperature;BMP_pressure;BME280_temperature;BME280_humidity;BME280_pressure;Samples;Min_cycle;Max_cycle;Signal;HPM_P1;HPM_P2
2023/03/29 01:24:09;;;;;;;64.40;23.90;;;;;;;-3.24;65.66;100952.41;106875;1270;22561;-56
2023/03/29 01:26:50;;;;;;;56.60;21.90;;;;;;;-3.26;65.75;100950.11;106777;1275;22656;-54
2023/03/29 01:29:28;;;;;;;59.60;22.10;;;;;;;-3.28;65.77;100951.88;110464;1260;22238;-55
2023/03/29 01:32:02;;;;;;;50.20;19.40;;;;;;;-3.29;65.88;100953.73;110516;1275;22336;-58
2023/03/29 01:34:40;;;;;;;58.50;21.40;;;;;;;-3.31;65.86;100952.16;110509;1275;22340;-55
2023/03/29 01:37:18;;;;;;;55.40;22.60;;;;;;;-3.31;65.91;100952.55;110523;1263;23621;-54
2023/03/29 01:39:49;;;;;;;53.40;21.40;;;;;;;-3.31;65.90;100950.91;110534;1260;22215;-56
2023/03/29 01:42:32;;;;;;;59.10;21.50;;;;;;;-3.32;65.94;100944.58;110519;1269;22278;-56
2023/03/29 01:45:15;;;;;;;54.20;21.00;;;;;;;-3.32;65.98;100946.52;109352;1272;22669;-54
2023/03/29 01:47:54;;;;;;;58.70;23.10;;;;;;;-3.32;65.98;100944.65;110490;1272;22220;-58
2023/03/29 01:50:37;;;;;;;52.30;22.30;;;;;;;-3.32;66.16;100939.20;110479;1275;22234;-55
2023/03/29 01:53:11;;;;;;;61.60;24.00;;;;;;;-3.32;66.25;100934.35;110468;1268;23051;-58
2023/03/29 01:55:45;;;;;;;76.30;26.70;;;;;;;-3.33;66.25;100932.08;110494;1269;22972;-56
2023/03/29 01:58:19;;;;;;;79.60;32.00;;;;;;;-3.32;66.41;100929.67;109808;1271;22639;-57
2023/03/29 02:00:54;;;;;;;84.60;31.40;;;;;;;-3.33;66.54;100925.52;110484;1263;22325;-57
2023/03/29 02:03:30;;;;;;;75.30;30.20;;;;;;;-3.34;66.69;100924.73;110498;1264;22191;-56
2023/03/29 02:06:03;;;;;;;81.20;32.70;;;;;;;-3.35;66.80;100926.11;110535;1263;22359;-57
2023/03/29 02:08:35;;;;;;;79.20;28.70;;;;;;;-3.40;66.78;100933.85;110518;1269;22368;-57
2023/03/29 02:11:07;;;;;;;76.00;30.50;;;;;;;-3.47;66.93;100929.15;110526;1260;23059;-57
2023/03/29 02:13:38;;;;;;;68.00;26.10;;;;;;;-3.54;67.12;100927.71;110495;1275;22337;-56
2023/03/29 02:16:13;;;;;;;66.80;25.20;;;;;;;-3.60;67.23;100929.57;110552;1254;22336;-56
2023/03/29 02:18:47;;;;;;;83.50;27.30;;;;;;;-3.62;67.36;100929.38;107942;1269;22571;-56
2023/03/29 02:21:31;;;;;;;74.20;25.80;;;;;;;-3.65;67.55;100932.01;109816;1269;22566;-56
2023/03/29 02:24:06;;;;;;;69.10;25.20;;;;;;;-3.66;67.57;100929.55;110523;1265;22241;-56
2023/03/29 02:26:37;;;;;;;74.30;25.90;;;;;;;-3.65;67.61;100922.79;107394;1267;22572;-54
2023/03/29 02:29:09;;;;;;;70.90;25.70;;;;;;;-3.64;67.54;100927.33;109613;1267;25078;-56
2023/03/29 02:31:45;;;;;;;69.40;26.20;;;;;;;-3.62;67.39;100923.38;110581;1273;22184;-56
2023/03/29 02:34:20;;;;;;;66.80;25.00;;;;;;;-3.60;67.47;100923.64;110589;1260;22922;-56
2023/03/29 02:36:55;;;;;;;70.10;26.20;;;;;;;-3.58;67.46;100923.60;110574;1267;23057;-58
2023/03/29 02:39:27;;;;;;;74.10;26.50;;;;;;;-3.56;67.62;100917.70;110636;1267;22206;-56
2023/03/29 02:42:02;;;;;;;63.70;24.10;;;;;;;-3.55;67.68;100917.41;110571;1269;22272;-56
2023/03/29 02:44:37;;;;;;;57.90;22.60;;;;;;;-3.54;67.68;100916.80;110551;1267;22995;-57
2023/03/29 02:47:13;;;;;;;64.90;24.30;;;;;;;-3.53;67.70;100915.64;110608;1260;23603;-58
2023/03/29 02:49:44;;;;;;;60.90;23.50;;;;;;;-3.53;67.80;100918.91;110544;1274;22224;-55
2023/03/29 02:52:20;;;;;;;61.20;22.80;;;;;;;-3.53;67.75;100914.45;110520;1262;23656;-56
2023/03/29 02:54:54;;;;;;;55.20;18.90;;;;;;;-3.55;67.94;100911.31;110543;1262;22412;-55
2023/03/29 02:57:25;;;;;;;51.20;20.60;;;;;;;-3.58;67.91;100906.98;110607;1269;22199;-56
2023/03/29 02:59:57;;;;;;;50.70;18.60;;;;;;;-3.59;67.99;100908.23;110545;1267;22185;-57
2023/03/29 03:02:28;;;;;;;51.00;18.40;;;;;;;-3.59;68.05;100906.89;110547;1266;22243;-57
2023/03/29 03:04:59;;;;;;;55.40;19.20;;;;;;;-3.61;68.21;100905.39;110613;1273;22197;-56
2023/03/29 03:07:30;;;;;;;54.50;19.40;;;;;;;-3.61;68.15;100904.22;110569;1272;23131;-57
2023/03/29 03:10:02;;;;;;;59.10;21.50;;;;;;;-3.61;68.31;100902.98;110587;1269;22384;-54
2023/03/29 03:12:33;;;;;;;47.70;18.60;;;;;;;-3.61;68.33;100894.30;110606;1271;22141;-57
2023/03/29 03:15:05;;;;;;;46.70;16.80;;;;;;;-3.60;68.32;100894.17;110581;1263;22217;-57
2023/03/29 03:17:38;;;;;;;52.00;18.80;;;;;;;-3.59;68.45;100890.67;110550;1269;23040;-55
2023/03/29 03:20:12;;;;;;;52.80;19.00;;;;;;;-3.57;68.36;100886.65;110579;1266;22364;-55
2023/03/29 03:22:47;;;;;;;47.10;19.50;;;;;;;-3.55;68.58;100886.52;110620;1273;22191;-56
2023/03/29 03:25:20;;;;;;;48.90;20.30;;;;;;;-3.54;68.59;100876.40;110582;1271;22272;-56
2023/03/29 03:27:52;;;;;;;57.70;20.70;;;;;;;-3.52;68.62;100877.98;110593;1272;22250;-55
2023/03/29 03:30:23;;;;;;;56.60;20.90;;;;;;;-3.51;68.66;100873.95;110624;1269;22150;-57
2023/03/29 03:32:54;;;;;;;51.70;19.30;;;;;;;-3.51;68.87;100871.92;110606;1263;22223;-56
2023/03/29 03:35:28;;;;;;;50.90;18.20;;;;;;;-3.50;68.84;100870.52;110586;1260;22214;-57
2023/03/29 03:38:00;;;;;;;49.80;18.00;;;;;;;-3.48;68.94;100868.14;110551;1270;22269;-57
2023/03/29 03:40:32;;;;;;;43.80;16.50;;;;;;;-3.47;69.10;100871.59;110600;1272;22331;-55
2023/03/29 03:43:03;;;;;;;43.50;14.50;;;;;;;-3.46;69.14;100868.33;110576;1267;23025;-57
2023/03/29 03:45:34;;;;;;;37.70;14.30;;;;;;;-3.46;69.04;100865.92;110553;1271;22446;-56
2023/03/29 03:48:06;;;;;;;43.80;15.70;;;;;;;-3.44;69.06;100863.50;110550;1271;22213;-56
2023/03/29 03:50:37;;;;;;;47.60;15.30;;;;;;;-3.45;69.22;100860.14;110538;1259;22438;-55
2023/03/29 03:53:08;;;;;;;51.80;18.90;;;;;;;-3.46;69.37;100858.91;110585;1260;22167;-56
2023/03/29 03:55:39;;;;;;;43.60;15.80;;;;;;;-3.46;69.32;100858.35;110578;1273;22324;-55
2023/03/29 03:58:10;;;;;;;37.50;14.80;;;;;;;-3.43;69.36;100853.39;110584;1272;22179;-51
2023/03/29 04:00:41;;;;;;;39.70;16.00;;;;;;;-3.41;69.34;100852.33;110589;1269;22405;-57
2023/03/29 04:03:12;;;;;;;45.00;15.00;;;;;;;-3.41;69.52;100849.52;110596;1271;22234;-56
2023/03/29 04:05:46;;;;;;;41.30;14.20;;;;;;;-3.42;69.59;100846.63;108216;1261;22572;-55
2023/03/29 04:08:17;;;;;;;41.80;14.30;;;;;;;-3.43;69.78;100850.98;106989;1273;24304;-55
2023/03/29 04:10:55;;;;;;;39.00;14.30;;;;;;;-3.46;69.70;100858.12;106909;1273;23093;-56
2023/03/29 04:13:27;;;;;;;45.30;17.10;;;;;;;-3.45;69.79;100859.14;110537;1271;22216;-60
2023/03/29 04:15:58;;;;;;;42.10;15.00;;;;;;;-3.44;69.93;100860.86;110564;1272;22602;-55
2023/03/29 04:18:29;;;;;;;50.30;16.10;;;;;;;-3.44;69.98;100855.25;110594;1272;22991;-55
2023/03/29 04:21:01;;;;;;;46.60;16.00;;;;;;;-3.43;70.17;100854.55;110581;1272;22294;-56
2023/03/29 04:23:32;;;;;;;61.40;17.10;;;;;;;-3.44;70.15;100844.33;110560;1267;22188;-54
2023/03/29 04:26:04;;;;;;;48.10;15.80;;;;;;;-3.44;70.31;100844.41;110567;1273;23058;-61
2023/03/29 04:28:35;;;;;;;46.80;16.90;;;;;;;-3.43;70.45;100842.23;110476;1260;22359;-55
2023/03/29 04:31:12;;;;;;;43.70;14.60;;;;;;;-3.44;70.52;100844.02;110509;1271;22260;-55
2023/03/29 04:33:45;;;;;;;43.90;14.60;;;;;;;-3.42;70.66;100843.66;110616;1272;22377;-56
2023/03/29 04:36:17;;;;;;;43.00;14.80;;;;;;;-3.42;70.84;100846.31;109081;1272;22705;-53
2023/03/29 04:38:48;;;;;;;53.90;19.70;;;;;;;-3.41;70.86;100845.63;110529;1272;22325;-55
2023/03/29 04:41:19;;;;;;;48.70;17.20;;;;;;;-3.40;71.12;100843.77;109806;1260;22887;-54
2023/03/29 04:43:50;;;;;;;46.60;17.40;;;;;;;-3.40;71.22;100841.13;110503;1274;22234;-57
2023/03/29 04:46:24;;;;;;;53.10;18.70;;;;;;;-3.40;71.28;100838.00;110527;1269;22375;-57
2023/03/29 04:48:55;;;;;;;51.70;18.90;;;;;;;-3.40;71.42;100835.95;110533;1263;23277;-58
2023/03/29 04:51:26;;;;;;;56.20;20.20;;;;;;;-3.39;71.47;100838.77;110475;1261;22183;-59
2023/03/29 04:53:57;;;;;;;48.20;18.40;;;;;;;-3.39;71.57;100840.58;109447;1269;22706;-58
2023/03/29 04:56:28;;;;;;;50.90;19.00;;;;;;;-3.38;71.67;100840.36;106433;1267;22551;-58
2023/03/29 04:58:59;;;;;;;46.00;18.80;;;;;;;-3.37;71.84;100839.59;110530;1273;22295;-58
2023/03/29 05:01:30;;;;;;;53.00;19.00;;;;;;;-3.36;71.89;100836.48;110572;1271;22380;-58
2023/03/29 05:04:03;;;;;;;57.40;19.70;;;;;;;-3.35;71.95;100836.66;110430;1263;22349;-57
2023/03/29 05:06:35;;;;;;;53.70;18.60;;;;;;;-3.31;72.01;100837.71;110529;1263;22323;-58
2023/03/29 05:09:07;;;;;;;56.60;17.60;;;;;;;-3.28;72.12;100837.61;110554;1272;23032;-57
2023/03/29 05:11:38;;;;;;;52.70;21.40;;;;;;;-3.26;72.43;100836.45;110480;1260;23343;-58
2023/03/29 05:14:09;;;;;;;57.60;19.70;;;;;;;-3.24;72.54;100836.95;110514;1267;22333;-59
2023/03/29 05:16:40;;;;;;;51.90;17.70;;;;;;;-3.22;72.56;100831.59;110530;1273;22224;-58
2023/03/29 05:19:11;;;;;;;51.90;18.10;;;;;;;-3.19;72.52;100831.46;110476;1272;23019;-58
2023/03/29 05:21:43;;;;;;;48.30;17.70;;;;;;;-3.16;72.37;100830.02;110554;1263;22210;-59
2023/03/29 05:24:15;;;;;;;42.30;15.60;;;;;;;-3.11;72.29;100830.54;110571;1263;22330;-59
2023/03/29 05:26:46;;;;;;;46.80;17.30;;;;;;;-3.06;72.48;100833.56;110532;1269;23249;-59
2023/03/29 05:29:17;;;;;;;43.60;15.10;;;;;;;-3.02;72.45;100839.62;110518;1266;22400;-58
2023/03/29 05:31:48;;;;;;;41.80;15.30;;;;;;;-2.97;72.38;100836.16;110449;1275;22318;-59
2023/03/29 05:34:19;;;;;;;46.10;16.70;;;;;;;-2.93;72.64;100839.59;110484;1272;22274;-59
2023/03/29 05:36:50;;;;;;;59.60;21.80;;;;;;;-2.88;72.98;100839.00;110503;1263;22254;-60
2023/03/29 05:39:22;;;;;;;65.80;24.30;;;;;;;-2.83;73.12;100832.48;110551;1272;22302;-60
2023/03/29 05:41:53;;;;;;;71.30;26.20;;;;;;;-2.78;73.44;100829.27;110592;1263;22226;-60
2023/03/29 05:44:24;;;;;;;66.90;25.00;;;;;;;-2.72;73.60;100827.45;110520;1259;22254;-59
2023/03/29 05:46:56;;;;;;;59.60;20.80;;;;;;;-2.67;73.87;100830.08;110538;1273;22423;-59
2023/03/29 05:49:29;;;;;;;60.20;20.10;;;;;;;-2.62;73.91;100828.02;110484;1272;23309;-57
2023/03/29 05:52:01;;;;;;;46.10;16.50;;;;;;;-2.55;74.12;100825.83;110546;1269;22291;-58
2023/03/29 05:55:03;;;;;;;45.30;14.80;;;;;;;-2.50;74.31;100824.77;110492;1263;22441;-58
2023/03/29 05:57:36;;;;;;;45.00;14.80;;;;;;;-2.42;74.51;100825.61;110566;1263;22545;-58
2023/03/29 06:03:04;;;;;;;46.60;14.00;;;;;;;-2.31;74.65;100825.02;110431;1272;23197;-58
2023/03/29 06:05:36;;;;;;;38.80;12.40;;;;;;;-2.26;74.65;100822.65;110338;1273;251563;-58
2023/03/29 06:08:07;;;;;;;38.00;14.50;;;;;;;-2.19;74.77;100824.96;110462;1267;22367;-58
2023/03/29 06:10:38;;;;;;;39.70;14.70;;;;;;;-2.13;74.71;100821.73;110497;1264;22204;-58
2023/03/29 06:13:10;;;;;;;42.60;15.00;;;;;;;-2.06;74.86;100819.20;109667;1260;22567;-58
2023/03/29 06:15:42;;;;;;;45.70;15.30;;;;;;;-1.99;74.90;100815.58;110838;1260;22367;-58
2023/03/29 06:18:13;;;;;;;45.90;14.70;;;;;;;-1.91;75.10;100816.19;110832;1267;22462;-58
2023/03/29 06:20:47;;;;;;;38.40;13.10;;;;;;;-1.82;75.21;100812.96;110799;1266;22259;-58
2023/03/29 06:23:19;;;;;;;45.60;13.80;;;;;;;-1.70;75.28;100820.07;110678;1264;22300;-58
2023/03/29 06:25:50;;;;;;;32.60;10.50;;;;;;;-1.58;75.42;100815.20;110743;1257;23249;-58
2023/03/29 06:28:21;;;;;;;27.60;8.70;;;;;;;-1.44;75.50;100812.93;110690;1258;22429;-59
2023/03/29 06:30:55;;;;;;;31.40;10.30;;;;;;;-1.30;75.24;100813.15;110691;1267;22352;-58
2023/03/29 06:33:26;;;;;;;36.00;10.00;;;;;;;-1.17;75.21;100813.45;110638;1266;23088;-58
2023/03/29 06:35:57;;;;;;;26.20;8.20;;;;;;;-1.04;75.39;100811.75;110741;1258;22308;-59
2023/03/29 06:38:29;;;;;;;28.70;8.20;;;;;;;-0.91;75.27;100805.77;110726;1264;22242;-59
2023/03/29 06:41:05;;;;;;;29.10;8.90;;;;;;;-0.78;75.30;100806.89;110747;1272;22212;-59
2023/03/29 06:43:36;;;;;;;25.50;7.50;;;;;;;-0.65;75.34;100807.08;110718;1269;22430;-58
2023/03/29 06:46:10;;;;;;;24.40;7.90;;;;;;;-0.51;75.24;100810.48;110756;1268;22265;-57
2023/03/29 06:48:41;;;;;;;21.40;5.90;;;;;;;-0.35;74.91;100812.27;110745;1260;23083;-59
2023/03/29 06:51:12;;;;;;;28.60;7.20;;;;;;;-0.21;74.64;100814.15;108025;1272;25597;-58
2023/03/29 06:53:46;;;;;;;23.50;7.00;;;;;;;-0.07;74.69;100810.08;106625;1264;22730;-58
2023/03/29 06:56:17;;;;;;;17.30;5.10;;;;;;;0.09;74.78;100805.43;106669;1264;24259;-58
2023/03/29 06:58:48;;;;;;;18.60;5.20;;;;;;;0.24;74.43;100806.12;106658;1272;25558;-58
2023/03/29 07:01:19;;;;;;;19.50;5.60;;;;;;;0.35;74.23;100802.78;106665;1267;24334;-57
2023/03/29 07:03:50;;;;;;;20.30;5.10;;;;;;;0.49;73.89;100804.55;110717;1260;22198;-57
2023/03/29 07:06:21;;;;;;;20.50;5.40;;;;;;;0.61;73.61;100804.91;110736;1258;22202;-57
2023/03/29 07:08:52;;;;;;;19.30;4.90;;;;;;;0.75;73.39;100802.58;110740;1260;22117;-58
2023/03/29 07:11:23;;;;;;;16.90;4.50;;;;;;;0.88;73.41;100800.00;110772;1257;22343;-57
2023/03/29 07:13:54;;;;;;;17.10;4.70;;;;;;;1.04;73.42;100795.45;110733;1272;22255;-57
2023/03/29 07:16:26;;;;;;;20.00;4.60;;;;;;;1.21;73.26;100796.52;110786;1266;23000;-57
2023/03/29 07:18:56;;;;;;;18.80;3.70;;;;;;;1.38;72.99;100796.26;110668;1264;22342;-56
2023/03/29 07:21:27;;;;;;;19.50;3.40;;;;;;;1.55;72.79;100796.30;110658;1260;22325;-59
2023/03/29 07:23:58;;;;;;;18.20;4.30;;;;;;;1.74;72.93;100798.20;110761;1266;22474;-58
2023/03/29 07:26:29;;;;;;;15.90;4.50;;;;;;;1.92;73.05;100794.42;110783;1258;23304;-58
2023/03/29 07:29:00;;;;;;;16.20;3.80;;;;;;;2.08;72.64;100791.36;110541;1272;22521;-57
2023/03/29 07:31:31;;;;;;;22.00;4.00;;;;;;;2.23;72.50;100789.86;106936;1272;22527;-57
2023/03/29 07:34:05;;;;;;;18.80;4.00;;;;;;;2.34;72.35;100791.26;107064;1267;26559;-57
2023/03/29 07:36:37;;;;;;;18.90;5.00;;;;;;;2.42;72.19;100795.19;109391;1270;25394;-55
2023/03/29 07:39:08;;;;;;;22.50;5.20;;;;;;;2.51;72.20;100798.23;110777;1269;22149;-58
2023/03/29 07:41:39;;;;;;;24.60;4.30;;;;;;;2.60;71.91;100797.73;110743;1264;22148;-56
2023/03/29 07:44:10;;;;;;;18.10;4.10;;;;;;;2.70;71.65;100793.76;110706;1266;22439;-56
2023/03/29 07:46:42;;;;;;;18.00;3.60;;;;;;;2.79;71.66;100792.39;110805;1272;22533;-56
2023/03/29 07:49:12;;;;;;;21.00;3.50;;;;;;;2.89;71.11;100793.60;110771;1266;22261;-57
2023/03/29 07:51:43;;;;;;;16.70;2.60;;;;;;;3.01;70.72;100792.26;110775;1264;22314;-58
2023/03/29 07:54:14;;;;;;;18.20;3.60;;;;;;;3.11;70.72;100795.73;110745;1270;22236;-56
2023/03/29 07:56:46;;;;;;;15.30;3.20;;;;;;;3.21;70.70;100793.64;110789;1268;22394;-57
2023/03/29 07:59:17;;;;;;;17.30;2.90;;;;;;;3.31;70.37;100796.25;110763;1264;22205;-57
2023/03/29 08:01:47;;;;;;;15.90;2.60;;;;;;;3.42;70.02;100790.96;110790;1272;22197;-58
2023/03/29 08:04:19;;;;;;;19.10;3.20;;;;;;;3.53;69.90;100790.48;110794;1264;22243;-57
2023/03/29 08:06:51;;;;;;;19.50;3.80;;;;;;;3.62;69.68;100788.44;110742;1264;22276;-57
2023/03/29 08:09:22;;;;;;;18.70;3.30;;;;;;;3.74;69.68;100787.55;110794;1257;22296;-55
2023/03/29 08:11:52;;;;;;;13.70;3.00;;;;;;;3.82;69.65;100788.12;110709;1272;22184;-58
2023/03/29 08:14:23;;;;;;;11.90;2.50;;;;;;;3.90;69.43;100786.48;110766;1257;22135;-56
2023/03/29 08:16:55;;;;;;;11.90;2.30;;;;;;;3.96;69.45;100785.75;110723;1266;22397;-56
2023/03/29 08:19:26;;;;;;;13.20;2.70;;;;;;;4.04;69.01;100787.74;110780;1264;22632;-58
2023/03/29 08:21:57;;;;;;;17.00;2.40;;;;;;;4.12;69.29;100783.73;110761;1268;22574;-58
2023/03/29 08:24:28;;;;;;;17.10;3.60;;;;;;;4.20;69.10;100781.30;110735;1257;22202;-57
2023/03/29 08:26:59;;;;;;;14.50;2.40;;;;;;;4.29;69.11;100775.45;110761;1257;22195;-57
2023/03/29 08:29:30;;;;;;;15.40;2.10;;;;;;;4.41;69.11;100775.45;110758;1264;23364;-58
2023/03/29 08:32:01;;;;;;;12.60;1.90;;;;;;;4.52;69.26;100773.66;110801;1260;23131;-57
2023/03/29 08:34:34;;;;;;;9.90;2.00;;;;;;;4.63;69.03;100768.14;110799;1267;23134;-58
2023/03/29 08:37:05;;;;;;;15.90;2.00;;;;;;;4.78;69.11;100770.19;110783;1268;23191;-58
2023/03/29 08:39:36;;;;;;;12.30;2.60;;;;;;;4.89;68.34;100766.81;110796;1257;22525;-56
2023/03/29 08:42:39;;;;;;;10.90;1.50;;;;;;;4.99;67.73;100765.02;110727;1267;22352;-58
2023/03/29 08:45:21;;;;;;;5.90;1.30;;;;;;;5.11;67.21;100758.88;110776;1266;22152;-58
2023/03/29 08:47:58;;;;;;;10.00;1.60;;;;;;;5.23;66.94;100754.27;110760;1266;22855;-58
2023/03/29 08:50:34;;;;;;;10.70;1.70;;;;;;;5.34;66.48;100755.30;110789;1257;22742;-58
2023/03/29 08:53:10;;;;;;;9.10;1.70;;;;;;;5.42;66.34;100754.05;110804;1264;22323;-58
2023/03/29 08:55:45;;;;;;;9.10;1.50;;;;;;;5.49;65.94;100747.80;110804;1272;22336;-58
2023/03/29 08:58:20;;;;;;;10.00;1.70;;;;;;;5.59;65.82;100744.23;110749;1264;22264;-58
2023/03/29 09:00:53;;;;;;;8.00;1.30;;;;;;;5.72;65.52;100743.45;110763;1267;22215;-56
2023/03/29 09:03:30;;;;;;;13.40;1.80;;;;;;;5.83;65.26;100738.75;110802;1268;22233;-58
2023/03/29 09:06:05;;;;;;;11.00;1.90;;;;;;;5.93;65.42;100735.80;110538;1267;22269;-57
2023/03/29 09:08:41;;;;;;;10.40;2.00;;;;;;;6.06;65.35;100737.04;110771;1266;22250;-56
2023/03/29 09:11:31;;;;;;;12.60;1.80;;;;;;;6.15;64.67;100737.75;110799;1264;22551;-57
2023/03/29 09:14:19;;;;;;;11.10;1.70;;;;;;;6.22;64.16;100741.43;110746;1260;22869;-58
2023/03/29 09:16:58;;;;;;;14.70;2.50;;;;;;;6.34;64.18;100741.11;110772;1272;22271;-58
2023/03/29 09:19:37;;;;;;;13.60;2.10;;;;;;;6.53;64.37;100742.10;110548;1260;22250;-58
2023/03/29 09:22:23;;;;;;;9.80;2.10;;;;;;;6.71;63.94;100739.91;110767;1264;22376;-58
2023/03/29 09:25:06;;;;;;;10.70;1.70;;;;;;;6.79;63.83;100739.67;110702;1264;22447;-57
2023/03/29 09:27:44;;;;;;;9.70;1.80;;;;;;;6.82;63.19;100736.31;110593;1266;22203;-58
2023/03/29 09:30:24;;;;;;;13.50;2.10;;;;;;;6.85;63.43;100736.69;110779;1264;22158;-58
2023/03/29 09:32:58;;;;;;;9.20;1.60;;;;;;;6.94;63.13;100735.48;110750;1260;23129;-59
2023/03/29 09:35:36;;;;;;;12.50;1.50;;;;;;;7.01;61.72;100734.11;110857;1264;22190;-58
2023/03/29 09:38:12;;;;;;;8.60;1.90;;;;;;;7.06;62.46;100726.56;110796;1266;22334;-58
2023/03/29 09:40:48;;;;;;;9.70;1.30;;;;;;;7.12;62.36;100724.23;110747;1266;23229;-58
2023/03/29 09:43:26;;;;;;;13.70;2.00;;;;;;;7.16;62.09;100721.64;110760;1265;22787;-58
2023/03/29 09:46:02;;;;;;;11.00;1.50;;;;;;;7.24;61.83;100724.86;110766;1269;22201;-58
2023/03/29 09:48:38;;;;;;;10.30;1.60;;;;;;;7.34;61.40;100717.81;110796;1256;22366;-59
2023/03/29 09:51:11;;;;;;;12.10;1.80;;;;;;;7.45;61.43;100713.65;110591;1262;22203;-58
2023/03/29 09:53:42;;;;;;;8.60;1.50;;;;;;;7.55;61.26;100712.13;110771;1260;22152;-58
2023/03/29 09:56:14;;;;;;;13.40;1.40;;;;;;;7.63;60.68;100709.74;110800;1265;22362;-59
2023/03/29 09:58:46;;;;;;;9.60;1.20;;;;;;;7.72;60.44;100704.73;110781;1272;23282;-57
2023/03/29 10:01:17;;;;;;;7.90;1.40;;;;;;;7.81;59.79;100703.41;110790;1266;23425;-58
2023/03/29 10:03:52;;;;;;;8.30;1.30;;;;;;;7.92;59.89;100700.39;110783;1256;22208;-59
2023/03/29 10:06:26;;;;;;;8.40;1.50;;;;;;;8.02;59.23;100699.02;110783;1266;22238;-58
2023/03/29 10:08:58;;;;;;;9.40;1.60;;;;;;;8.11;59.34;100692.58;110811;1264;22241;-57
2023/03/29 10:11:34;;;;;;;9.90;1.60;;;;;;;8.21;58.93;100693.02;110759;1257;22312;-58
2023/03/29 10:14:07;;;;;;;8.60;1.50;;;;;;;8.26;58.53;100688.07;110804;1256;22128;-59
2023/03/29 10:16:41;;;;;;;9.10;1.70;;;;;;;8.33;58.42;100680.52;110782;1272;22211;-58
2023/03/29 10:19:22;;;;;;;11.60;1.90;;;;;;;8.39;58.48;100677.85;110807;1260;22987;-57
2023/03/29 10:21:54;;;;;;;10.60;1.70;;;;;;;8.45;58.53;100669.64;110792;1266;22331;-58
2023/03/29 10:24:27;;;;;;;11.70;1.90;;;;;;;8.55;58.00;100670.02;110779;1264;22216;-58
2023/03/29 10:27:00;;;;;;;11.80;2.00;;;;;;;8.59;57.41;100669.04;110799;1260;23079;-58
2023/03/29 10:29:38;;;;;;;13.00;2.40;;;;;;;8.61;57.62;100667.78;110815;1265;22462;-58
2023/03/29 10:32:18;;;;;;;12.10;2.10;;;;;;;8.68;57.94;100665.70;110772;1264;24490;-59
2023/03/29 10:34:49;;;;;;;10.50;2.30;;;;;;;8.72;56.75;100667.36;110810;1266;22276;-58
2023/03/29 10:37:22;;;;;;;12.10;2.20;;;;;;;8.72;57.24;100658.60;110786;1256;22193;-62
2023/03/29 10:39:55;;;;;;;9.00;1.80;;;;;;;8.75;56.91;100660.72;110828;1260;22996;-58
2023/03/29 10:42:28;;;;;;;12.20;2.30;;;;;;;8.84;57.00;100663.25;110743;1264;22278;-57
2023/03/29 10:44:59;;;;;;;9.60;2.50;;;;;;;8.91;57.09;100658.48;109621;1264;22543;-57
2023/03/29 10:47:34;;;;;;;12.10;2.00;;;;;;;9.00;56.94;100650.67;106848;1257;22577;-57
2023/03/29 10:50:09;;;;;;;11.70;2.10;;;;;;;9.09;56.87;100651.52;110798;1266;22231;-59
2023/03/29 10:52:41;;;;;;;7.50;1.90;;;;;;;9.18;56.55;100653.44;110779;1272;22923;-58
2023/03/29 10:55:14;;;;;;;9.70;2.30;;;;;;;9.24;56.52;100651.45;110807;1264;22176;-58
2023/03/29 10:57:57;;;;;;;13.20;2.70;;;;;;;9.33;56.57;100641.04;110771;1266;23063;-59
2023/03/29 11:00:35;;;;;;;9.70;1.70;;;;;;;9.42;56.03;100636.91;110777;1267;23134;-59
2023/03/29 11:03:46;;;;;;;11.10;2.00;;;;;;;9.49;55.91;100635.25;110815;1265;22213;-59
2023/03/29 11:06:26;;;;;;;12.10;2.20;;;;;;;9.59;55.50;100624.39;110102;1275;22351;-58
2023/03/29 11:08:59;;;;;;;11.30;2.40;;;;;;;9.64;55.29;100619.27;110119;1271;22229;-59
2023/03/29 11:11:47;;;;;;;10.70;2.00;;;;;;;9.67;54.82;100621.20;110155;1270;22352;-58
2023/03/29 11:14:30;;;;;;;8.50;2.20;;;;;;;9.72;55.08;100614.37;110156;1270;22360;-60
2023/03/29 11:17:17;;;;;;;11.00;1.90;;;;;;;9.78;53.83;100611.88;110123;1278;22304;-59
2023/03/29 11:20:01;;;;;;;9.00;1.70;;;;;;;9.80;54.08;100610.18;110194;1278;22185;-59
2023/03/29 11:22:42;;;;;;;11.30;2.10;;;;;;;9.88;54.60;100608.91;110131;1271;23165;-60
2023/03/29 11:25:28;;;;;;;9.80;1.60;;;;;;;9.94;54.17;100609.29;110057;1271;22208;-59
2023/03/29 11:28:06;;;;;;;11.60;1.80;;;;;;;9.95;54.01;100605.63;110038;1264;22155;-60
2023/03/29 11:30:43;;;;;;;8.50;1.90;;;;;;;9.99;53.90;100603.77;110052;1267;22314;-59
2023/03/29 11:33:27;;;;;;;9.20;1.60;;;;;;;10.05;53.69;100598.88;110007;1272;22232;-59
2023/03/29 11:36:08;;;;;;;16.90;2.30;;;;;;;10.10;53.23;100591.73;110043;1264;22429;-60
2023/03/29 11:38:42;;;;;;;8.30;1.80;;;;;;;10.15;53.17;100588.83;110018;1268;22293;-60
2023/03/29 11:41:18;;;;;;;8.20;1.70;;;;;;;10.20;52.83;100586.43;110059;1272;22827;-60
2023/03/29 11:43:55;;;;;;;12.00;1.90;;;;;;;10.22;52.86;100584.57;110635;1272;22173;-59
2023/03/29 11:46:30;;;;;;;9.00;1.80;;;;;;;10.28;52.77;100574.75;110647;1265;22223;-60
2023/03/29 11:49:05;;;;;;;10.10;1.60;;;;;;;10.30;52.37;100572.17;110651;1266;22986;-60
2023/03/29 11:51:41;;;;;;;10.20;1.70;;;;;;;10.31;51.97;100559.12;110588;1262;22371;-60
2023/03/29 11:54:18;;;;;;;8.00;1.80;;;;;;;10.31;51.89;100557.36;110627;1256;22931;-60
2023/03/29 11:56:55;;;;;;;8.20;1.40;;;;;;;10.31;51.96;100556.12;110591;1269;22720;-59
2023/03/29 11:59:32;;;;;;;11.30;2.20;;;;;;;10.30;51.51;100555.14;110637;1257;22910;-60
2023/03/29 12:02:11;;;;;;;10.70;2.10;;;;;;;10.27;51.20;100547.66;110521;1273;22157;-60
2023/03/29 12:04:48;;;;;;;14.00;1.90;;;;;;;10.26;51.40;100541.38;110644;1273;22165;-63
2023/03/29 12:07:26;;;;;;;14.20;2.00;;;;;;;10.26;51.28;100540.32;110635;1260;22853;-60
2023/03/29 12:10:03;;;;;;;9.30;1.60;;;;;;;10.30;51.31;100534.64;110645;1262;22382;-60
2023/03/29 12:12:44;;;;;;;8.30;1.80;;;;;;;10.33;51.01;100526.65;110635;1260;22463;-60
2023/03/29 12:15:20;;;;;;;9.10;1.60;;;;;;;10.37;51.00;100520.35;110678;1260;23026;-60
2023/03/29 12:18:00;;;;;;;9.00;1.70;;;;;;;10.42;50.75;100522.30;110625;1266;22217;-60
2023/03/29 12:20:35;;;;;;;9.00;1.70;;;;;;;10.46;50.45;100516.31;110640;1264;22380;-59
2023/03/29 12:23:07;;;;;;;10.10;1.50;;;;;;;10.47;50.61;100513.48;110606;1266;22198;-59
2023/03/29 12:25:50;;;;;;;8.70;1.90;;;;;;;10.49;50.37;100512.77;110632;1273;22234;-60
2023/03/29 12:28:37;;;;;;;10.70;1.90;;;;;;;10.50;50.25;100505.75;109032;1266;22514;-58
2023/03/29 12:31:15;;;;;;;15.30;2.50;;;;;;;10.54;50.60;100501.78;110596;1263;22436;-60
2023/03/29 12:34:12;;;;;;;13.40;1.80;;;;;;;10.65;50.19;100507.28;110691;1269;22165;-59
2023/03/29 12:37:00;;;;;;;10.20;1.70;;;;;;;10.72;50.17;100503.34;110648;1266;22811;-59
2023/03/29 12:39:32;;;;;;;10.60;1.70;;;;;;;10.77;49.87;100499.70;110661;1262;22312;-61
2023/03/29 12:42:16;;;;;;;13.80;2.30;;;;;;;10.80;49.49;100498.23;110686;1266;22358;-60
2023/03/29 12:44:52;;;;;;;12.90;2.40;;;;;;;10.82;49.30;100493.01;110634;1266;22876;-60
2023/03/29 12:47:26;;;;;;;8.30;2.30;;;;;;;10.82;49.51;100487.13;110667;1266;23134;-60
2023/03/29 12:49:59;;;;;;;10.90;1.30;;;;;;;10.85;49.21;100488.19;110617;1273;22906;-60
2023/03/29 12:52:33;;;;;;;7.60;1.50;;;;;;;10.86;48.44;100483.34;110678;1265;22344;-61
2023/03/29 12:55:20;;;;;;;13.40;1.70;;;;;;;10.85;48.65;100479.81;110620;1266;22339;-59
2023/03/29 12:58:04;;;;;;;7.90;1.80;;;;;;;10.85;48.85;100480.91;110605;1269;23011;-60
2023/03/29 13:00:45;;;;;;;12.00;2.30;;;;;;;10.86;48.45;100475.69;110634;1265;22438;-60
2023/03/29 13:03:36;;;;;;;9.30;1.60;;;;;;;10.87;48.73;100473.13;108563;1267;22518;-59
2023/03/29 13:06:24;;;;;;;9.10;1.70;;;;;;;10.90;48.57;100477.60;110555;1261;22374;-60
2023/03/29 13:09:03;;;;;;;10.60;1.70;;;;;;;10.96;48.69;100471.72;110612;1258;22249;-60